createdAt,value
2018-09-01T08:12:37.023Z,9.00
2018-09-01T08:20:02.513Z,8.40
2018-09-01T17:18:55.571Z,23.70
2018-09-01T17:21:26.123Z,24.70
2018-09-01T17:23:56.665Z,23.10
2018-09-01T17:26:26.344Z,21.75
2018-09-01T17:28:55.657Z,34.00
2018-09-01T17:31:25.537Z,24.10
2018-09-01T17:33:55.030Z,28.10
2018-09-01T17:36:25.583Z,24.90
2018-09-01T17:38:55.617Z,36.80
2018-09-01T17:41:27.175Z,25.10
2018-09-01T17:43:56.880Z,33.30
2018-09-01T17:46:26.220Z,35.83
2018-09-01T17:51:48.958Z,41.53
2018-09-01T17:54:19.682Z,42.20
2018-09-01T17:56:49.590Z,35.33
2018-09-01T17:59:20.772Z,31.30
2018-09-01T18:01:52.075Z,40.05
2018-09-01T18:06:51.211Z,29.90
2018-09-01T18:09:22.901Z,34.10
2018-09-01T18:11:53.550Z,32.33
2018-09-01T18:14:23.508Z,40.90
2018-09-01T18:21:53.112Z,40.10
2018-09-01T18:24:22.772Z,34.60
2018-09-01T18:26:53.267Z,31.80
2018-09-01T18:29:22.943Z,37.50
2018-09-01T18:34:22.433Z,42.90
2018-09-01T18:47:12.845Z,28.85
2018-09-01T18:49:42.500Z,30.10
2018-09-01T18:52:12.215Z,32.73
2018-09-01T18:54:42.472Z,31.00
2018-09-01T19:02:10.421Z,30.80
2018-09-01T19:09:38.466Z,29.40
2018-09-01T19:14:38.059Z,33.20
2018-09-01T19:22:07.087Z,29.60
2018-09-01T19:32:07.484Z,27.45
2018-09-01T19:34:37.322Z,26.40
2018-09-01T19:44:34.379Z,28.75
2018-09-01T19:47:04.297Z,23.80
2018-09-01T19:52:03.090Z,23.90
2018-09-01T19:54:33.092Z,17.70
2018-09-01T19:59:31.488Z,15.70
2018-09-01T20:17:08.964Z,21.10
2018-09-01T20:37:02.537Z,27.90
2018-09-01T20:44:29.198Z,23.80
2018-09-01T21:21:43.851Z,22.20
2018-09-01T21:26:42.218Z,22.80
2018-09-01T21:34:12.074Z,25.20
2018-09-01T21:41:43.889Z,27.20
2018-09-01T21:44:14.704Z,28.50
2018-09-01T22:21:27.490Z,36.50
2018-09-01T22:23:57.186Z,35.75
2018-09-01T22:31:24.422Z,35.90
2018-09-01T22:36:23.232Z,41.30
2018-09-01T22:38:54.806Z,31.40
2018-09-01T22:46:21.719Z,34.30
2018-09-01T22:56:19.084Z,37.10
2018-09-01T23:16:12.562Z,32.00
2018-09-01T23:36:06.197Z,25.60
2018-09-01T23:41:04.692Z,25.00
2018-09-01T23:46:04.004Z,20.20
2018-09-01T23:56:06.097Z,16.80
2018-09-01T23:58:35.662Z,16.50
